Weather at Copenhagen Kastrup Airport

Public forecast

Using degrees Celsius for public forecast. Weather courtesy of forecast.io.

Current aviation weather report (METAR) for Copenhagen Kastrup Airport

Retrieved 2020/10/27 08:20 UTC (0 seconds ago):

EKCH 270820Z 21015KT 9999 BKN015 10/08 Q1003 NOSIG

Aviation forecast (TAF) for Copenhagen Kastrup Airport

Retrieved 2020/10/27 06:30 UTC (2 hours ago):

TAF EKCH 270514Z 2706/2806 21012KT 9999 BKN030 TEMPO 2708/2712 20015G25KT BKN012 TEMPO 2712/2721 20015G25KT FEW020CB BECMG 2803/2806 20022KT 4000 RA BKN012